Time;durP1;ratioP1;P1;durP2;ratioP2;P2;SDS_P1;SDS_P2;PMS_P1;PMS_P2;Temp;Humidity;BMP_temperature;BMP_pressure;BME280_temperature;BME280_humidity;BME280_pressure;Samples;Min_cycle;Max_cycle;Signal;HPM_P1;HPM_P2
2022/03/18 00:00:00;;;;;;;46.83;29.88;;;;;;;;;;6313308;22;20002;-81
2022/03/18 00:02:27;;;;;;;47.55;28.52;;;;;;;;;;6314243;22;20051;-82
2022/03/18 00:04:54;;;;;;;43.75;28.38;;;;;;;;;;6313726;22;19999;-81
2022/03/18 00:07:21;;;;;;;42.97;28.10;;;;;;;;;;6285883;22;20339;-81
2022/03/18 00:09:47;;;;;;;41.40;28.10;;;;;;;;;;6313373;22;20057;-81
2022/03/18 00:12:13;;;;;;;43.10;28.02;;;;;;;;;;6312627;22;20435;-81
2022/03/18 00:14:39;;;;;;;47.75;27.92;;;;;;;;;;6285800;22;20033;-82
2022/03/18 00:17:06;;;;;;;40.53;27.10;;;;;;;;;;6313431;22;20003;-81
2022/03/18 00:19:33;;;;;;;42.10;27.33;;;;;;;;;;6285345;22;19999;-80
2022/03/18 00:22:01;;;;;;;41.50;27.70;;;;;;;;;;6285338;22;20489;-81
2022/03/18 00:24:28;;;;;;;43.42;28.63;;;;;;;;;;6314299;22;20434;-81
2022/03/18 00:26:54;;;;;;;46.33;28.15;;;;;;;;;;6287215;22;19999;-81
2022/03/18 00:29:20;;;;;;;40.10;28.73;;;;;;;;;;6285710;22;20003;-82
2022/03/18 00:31:46;;;;;;;47.97;29.70;;;;;;;;;;6285707;22;19991;-83
2022/03/18 00:34:12;;;;;;;43.80;29.42;;;;;;;;;;6312796;22;20072;-81
2022/03/18 00:36:38;;;;;;;47.05;29.67;;;;;;;;;;6285424;22;20014;-81
2022/03/18 00:39:05;;;;;;;45.05;28.73;;;;;;;;;;6312938;22;20453;-82
2022/03/18 00:41:31;;;;;;;46.13;29.75;;;;;;;;;;6285529;22;20009;-81
2022/03/18 00:43:57;;;;;;;48.40;29.95;;;;;;;;;;6313402;22;20071;-81
2022/03/18 00:46:24;;;;;;;46.33;29.83;;;;;;;;;;6312577;22;20049;-80
2022/03/18 00:54:20;;;;;;;45.50;27.98;;;;;;;;;;6312854;22;20018;-82
2022/03/18 00:56:46;;;;;;;47.53;29.42;;;;;;;;;;6313307;22;20016;-82
2022/03/18 00:59:12;;;;;;;46.25;30.08;;;;;;;;;;6313113;22;20026;-82
2022/03/18 01:01:39;;;;;;;49.30;30.70;;;;;;;;;;6285687;22;20000;-82
2022/03/18 01:04:05;;;;;;;49.00;30.80;;;;;;;;;;6285947;22;20007;-82
2022/03/18 01:06:35;;;;;;;47.25;28.92;;;;;;;;;;6312005;22;20003;-81
2022/03/18 01:09:02;;;;;;;46.45;28.83;;;;;;;;;;6285329;22;19999;-82
2022/03/18 01:11:28;;;;;;;44.60;29.25;;;;;;;;;;6285187;22;20003;-81
2022/03/18 01:13:54;;;;;;;48.08;30.30;;;;;;;;;;6312890;22;20102;-81
2022/03/18 01:16:20;;;;;;;48.30;30.35;;;;;;;;;;6312992;22;20054;-82
2022/03/18 01:18:46;;;;;;;46.70;28.50;;;;;;;;;;6312930;22;19995;-81
2022/03/18 01:21:12;;;;;;;42.20;28.02;;;;;;;;;;6312229;22;20004;-82
2022/03/18 01:23:38;;;;;;;44.75;29.23;;;;;;;;;;6286633;22;20462;-81
2022/03/18 01:26:04;;;;;;;46.95;28.77;;;;;;;;;;6313643;22;20090;-81
2022/03/18 01:28:30;;;;;;;46.90;29.30;;;;;;;;;;6285851;22;20034;-81
2022/03/18 01:30:57;;;;;;;47.20;28.92;;;;;;;;;;6284536;22;20006;-81
2022/03/18 01:33:23;;;;;;;44.20;29.90;;;;;;;;;;6312714;22;20070;-80
2022/03/18 01:35:49;;;;;;;45.35;27.83;;;;;;;;;;6312628;22;19999;-81
2022/03/18 01:38:15;;;;;;;41.15;28.15;;;;;;;;;;6284896;22;20023;-81
2022/03/18 01:40:41;;;;;;;42.50;28.73;;;;;;;;;;6284392;22;20006;-81
2022/03/18 01:43:11;;;;;;;46.78;30.55;;;;;;;;;;6284969;22;20091;-81
2022/03/18 01:45:37;;;;;;;45.95;29.27;;;;;;;;;;6284932;22;20003;-82
2022/03/18 01:48:04;;;;;;;45.97;29.55;;;;;;;;;;6312939;22;19999;-81
2022/03/18 01:50:30;;;;;;;47.63;29.80;;;;;;;;;;6284094;22;20003;-81
2022/03/18 01:52:57;;;;;;;44.15;29.45;;;;;;;;;;6311833;22;20003;-81
2022/03/18 01:55:24;;;;;;;44.67;28.95;;;;;;;;;;6312420;22;20003;-80
2022/03/18 01:57:50;;;;;;;45.15;28.80;;;;;;;;;;6312511;22;20057;-80
2022/03/18 02:00:18;;;;;;;47.47;29.00;;;;;;;;;;6312452;22;20009;-81
2022/03/18 02:02:44;;;;;;;43.10;27.85;;;;;;;;;;6311921;22;19999;-81
2022/03/18 02:05:11;;;;;;;45.55;28.45;;;;;;;;;;6312767;22;20090;-81
2022/03/18 02:07:37;;;;;;;43.47;29.00;;;;;;;;;;6285714;22;20017;-81
2022/03/18 02:10:03;;;;;;;43.53;28.52;;;;;;;;;;6312636;22;20026;-81
2022/03/18 02:12:29;;;;;;;47.70;29.48;;;;;;;;;;6284645;22;20385;-82
2022/03/18 02:14:55;;;;;;;46.20;28.75;;;;;;;;;;6284464;22;20098;-82
2022/03/18 02:17:21;;;;;;;43.78;28.77;;;;;;;;;;6285339;22;20008;-81
2022/03/18 02:19:49;;;;;;;47.53;29.48;;;;;;;;;;6284841;22;20339;-81
2022/03/18 02:22:18;;;;;;;45.08;29.17;;;;;;;;;;6312057;22;20038;-82
2022/03/18 02:24:45;;;;;;;47.15;29.48;;;;;;;;;;6284801;22;20280;-82
2022/03/18 02:27:12;;;;;;;47.60;28.52;;;;;;;;;;6312207;22;20007;-82
2022/03/18 02:29:38;;;;;;;43.47;29.95;;;;;;;;;;6312575;22;19996;-82
2022/03/18 02:32:05;;;;;;;47.00;29.98;;;;;;;;;;6285403;22;20007;-81
2022/03/18 02:34:31;;;;;;;41.03;28.92;;;;;;;;;;6312224;22;20004;-82
2022/03/18 02:36:58;;;;;;;42.90;29.40;;;;;;;;;;6312969;22;20434;-81
2022/03/18 02:39:24;;;;;;;45.33;29.13;;;;;;;;;;6285184;22;20009;-81
2022/03/18 02:41:50;;;;;;;44.83;30.65;;;;;;;;;;6312197;22;20027;-82
2022/03/18 02:44:16;;;;;;;46.45;30.45;;;;;;;;;;6284868;22;20000;-82
2022/03/18 02:46:42;;;;;;;42.42;28.25;;;;;;;;;;6312454;22;20006;-81
2022/03/18 02:49:08;;;;;;;46.70;30.35;;;;;;;;;;6311850;22;20497;-82
2022/03/18 02:51:37;;;;;;;46.50;29.33;;;;;;;;;;6313069;22;20003;-82
2022/03/18 02:54:07;;;;;;;43.92;28.85;;;;;;;;;;6285731;22;20061;-81
2022/03/18 02:56:33;;;;;;;42.13;28.52;;;;;;;;;;6313981;22;20015;-82
2022/03/18 02:59:02;;;;;;;49.55;29.67;;;;;;;;;;6286104;22;20010;-82
2022/03/18 03:01:30;;;;;;;49.40;29.85;;;;;;;;;;6287548;22;20435;-82
2022/03/18 03:03:56;;;;;;;43.83;29.48;;;;;;;;;;6287081;22;19999;-82
2022/03/18 03:09:07;;;;;;;47.95;28.70;;;;;;;;;;6314002;22;20053;-82
2022/03/18 03:11:34;;;;;;;45.67;28.63;;;;;;;;;;6286244;22;20485;-82
2022/03/18 03:14:00;;;;;;;46.28;28.20;;;;;;;;;;6286371;22;20342;-82
2022/03/18 03:16:26;;;;;;;47.17;29.80;;;;;;;;;;6313504;22;20018;-82
2022/03/18 03:18:52;;;;;;;45.58;29.10;;;;;;;;;;6285932;22;20030;-82
2022/03/18 03:21:18;;;;;;;44.63;28.38;;;;;;;;;;6313526;22;20002;-82
2022/03/18 03:23:44;;;;;;;41.95;27.92;;;;;;;;;;6313734;22;20452;-82
2022/03/18 03:26:11;;;;;;;45.13;28.80;;;;;;;;;;6286699;22;20003;-82
2022/03/18 03:28:37;;;;;;;45.80;29.88;;;;;;;;;;6286838;22;20084;-81
2022/03/18 03:31:03;;;;;;;45.55;28.55;;;;;;;;;;6285519;22;20003;-82
2022/03/18 03:33:29;;;;;;;44.25;27.77;;;;;;;;;;6313688;22;19999;-81
2022/03/18 03:35:56;;;;;;;44.72;28.40;;;;;;;;;;6313770;22;20000;-81
2022/03/18 03:38:23;;;;;;;41.22;28.52;;;;;;;;;;6312532;22;20003;-82
2022/03/18 03:40:49;;;;;;;48.60;30.02;;;;;;;;;;6285688;22;20031;-82
2022/03/18 03:43:15;;;;;;;46.15;29.08;;;;;;;;;;6313263;22;20005;-82
2022/03/18 03:45:41;;;;;;;47.55;28.15;;;;;;;;;;6313513;22;20013;-82
2022/03/18 03:48:08;;;;;;;46.70;29.55;;;;;;;;;;6285987;22;20043;-81
2022/03/18 03:50:34;;;;;;;45.10;28.90;;;;;;;;;;6286694;22;20014;-82
2022/03/18 03:53:01;;;;;;;42.75;27.85;;;;;;;;;;6312708;22;20007;-82
2022/03/18 03:55:27;;;;;;;48.60;29.63;;;;;;;;;;6286174;22;20008;-81
2022/03/18 03:57:53;;;;;;;49.13;29.90;;;;;;;;;;6312785;22;20456;-81
2022/03/18 04:00:19;;;;;;;43.65;28.42;;;;;;;;;;6313048;22;20026;-81
2022/03/18 04:02:45;;;;;;;46.78;29.05;;;;;;;;;;6286691;22;20385;-82
2022/03/18 04:05:12;;;;;;;44.53;27.90;;;;;;;;;;6313458;22;20011;-82
2022/03/18 04:07:39;;;;;;;47.72;28.88;;;;;;;;;;6286118;22;20011;-82
2022/03/18 04:10:05;;;;;;;47.60;29.42;;;;;;;;;;6286071;22;20003;-82
2022/03/18 04:12:33;;;;;;;46.60;28.80;;;;;;;;;;6286492;22;20007;-81
2022/03/18 04:14:59;;;;;;;42.90;28.13;;;;;;;;;;6286309;22;20007;-82
2022/03/18 04:17:28;;;;;;;45.00;28.02;;;;;;;;;;6285867;22;20358;-82
2022/03/18 04:19:54;;;;;;;45.90;28.75;;;;;;;;;;6313417;22;20074;-82
2022/03/18 04:22:23;;;;;;;43.47;27.75;;;;;;;;;;6313433;22;20410;-82
2022/03/18 04:24:49;;;;;;;44.70;28.88;;;;;;;;;;6313932;22;20011;-82
2022/03/18 04:27:15;;;;;;;47.10;29.73;;;;;;;;;;6285943;22;20003;-82
2022/03/18 04:29:41;;;;;;;50.00;29.27;;;;;;;;;;6313855;22;20003;-83
2022/03/18 04:32:07;;;;;;;50.28;30.55;;;;;;;;;;6312658;22;20025;-81
2022/03/18 04:34:33;;;;;;;45.83;29.30;;;;;;;;;;6285849;22;20039;-81
2022/03/18 04:36:59;;;;;;;44.47;28.83;;;;;;;;;;6286782;22;20007;-81
2022/03/18 04:39:25;;;;;;;49.53;29.48;;;;;;;;;;6285952;22;19995;-81
2022/03/18 04:41:51;;;;;;;49.85;31.90;;;;;;;;;;6312767;22;20018;-81
2022/03/18 04:44:17;;;;;;;47.67;29.67;;;;;;;;;;6286698;22;20098;-83
2022/03/18 04:46:43;;;;;;;46.45;29.67;;;;;;;;;;6313071;22;20478;-82
2022/03/18 04:49:09;;;;;;;48.85;29.35;;;;;;;;;;6291906;22;20072;-82
2022/03/18 04:51:35;;;;;;;46.80;30.20;;;;;;;;;;6319985;22;20011;-83
2022/03/18 04:54:01;;;;;;;46.65;30.27;;;;;;;;;;6292328;22;20038;-82
2022/03/18 04:59:12;;;;;;;50.92;30.00;;;;;;;;;;6318532;22;20022;-82
2022/03/18 05:01:38;;;;;;;47.00;29.15;;;;;;;;;;6291763;22;19999;-81
2022/03/18 05:04:04;;;;;;;49.92;30.58;;;;;;;;;;6296928;22;20063;-81
2022/03/18 05:06:30;;;;;;;50.60;29.83;;;;;;;;;;6325548;22;20004;-81
2022/03/18 05:08:57;;;;;;;45.63;28.45;;;;;;;;;;6326210;22;20010;-83
2022/03/18 05:11:23;;;;;;;48.85;30.67;;;;;;;;;;6296587;22;20003;-82
2022/03/18 05:13:49;;;;;;;47.08;30.00;;;;;;;;;;6297694;22;20019;-80
2022/03/18 05:16:15;;;;;;;45.63;29.30;;;;;;;;;;6321370;22;20003;-82
2022/03/18 05:18:41;;;;;;;43.65;28.85;;;;;;;;;;6318195;22;19999;-82
2022/03/18 05:21:07;;;;;;;53.38;30.98;;;;;;;;;;6322333;22;19999;-81
2022/03/18 05:23:33;;;;;;;44.17;28.25;;;;;;;;;;6292037;22;20441;-82
2022/03/18 05:25:59;;;;;;;48.58;29.75;;;;;;;;;;6313008;22;20003;-81
2022/03/18 05:28:26;;;;;;;44.05;28.90;;;;;;;;;;6313217;22;20037;-81
2022/03/18 05:30:52;;;;;;;49.33;29.77;;;;;;;;;;6312628;22;20479;-81
2022/03/18 05:33:19;;;;;;;42.75;28.17;;;;;;;;;;6311711;22;19999;-81
2022/03/18 05:35:45;;;;;;;50.95;30.67;;;;;;;;;;6312082;22;20482;-81
2022/03/18 05:38:11;;;;;;;48.22;28.95;;;;;;;;;;6313619;22;19999;-81
2022/03/18 05:40:37;;;;;;;47.58;29.00;;;;;;;;;;6312970;22;20030;-81
2022/03/18 05:43:03;;;;;;;50.75;30.27;;;;;;;;;;6317628;22;20311;-80
2022/03/18 05:45:30;;;;;;;45.25;28.52;;;;;;;;;;6320149;22;20096;-81
2022/03/18 05:47:56;;;;;;;48.17;29.70;;;;;;;;;;6294763;22;20029;-81
2022/03/18 05:50:22;;;;;;;49.78;31.40;;;;;;;;;;6320476;22;20007;-80
2022/03/18 05:52:48;;;;;;;44.00;28.20;;;;;;;;;;6315754;22;20124;-81
2022/03/18 05:55:14;;;;;;;47.15;29.17;;;;;;;;;;6313380;22;20003;-82
2022/03/18 05:57:40;;;;;;;49.03;30.20;;;;;;;;;;6313792;22;20026;-81
2022/03/18 06:00:07;;;;;;;49.95;29.38;;;;;;;;;;6286167;22;20003;-81
2022/03/18 06:02:33;;;;;;;47.47;28.80;;;;;;;;;;6286006;22;20053;-81
2022/03/18 06:05:00;;;;;;;48.33;29.65;;;;;;;;;;6311674;22;19999;-82
2022/03/18 06:07:26;;;;;;;47.92;29.85;;;;;;;;;;6314148;22;20006;-84
2022/03/18 06:12:37;;;;;;;46.63;29.42;;;;;;;;;;6312206;22;20091;-82
2022/03/18 06:15:03;;;;;;;46.63;29.15;;;;;;;;;;6313305;22;19999;-81
2022/03/18 06:17:29;;;;;;;49.10;29.02;;;;;;;;;;6312954;22;19995;-81
2022/03/18 06:19:55;;;;;;;44.97;28.65;;;;;;;;;;6312526;22;20017;-82
2022/03/18 06:22:21;;;;;;;50.00;30.55;;;;;;;;;;6285058;22;20014;-81
2022/03/18 06:24:47;;;;;;;50.53;32.17;;;;;;;;;;6285410;22;20443;-82
2022/03/18 06:27:13;;;;;;;53.05;34.15;;;;;;;;;;6286850;22;20052;-82
2022/03/18 06:29:43;;;;;;;54.10;34.70;;;;;;;;;;6315237;22;20052;-82
2022/03/18 06:32:09;;;;;;;55.15;35.67;;;;;;;;;;6287274;22;20343;-83
2022/03/18 06:34:35;;;;;;;54.60;34.33;;;;;;;;;;6315192;22;20021;-82
2022/03/18 06:37:02;;;;;;;54.75;35.08;;;;;;;;;;6314050;22;20010;-82
2022/03/18 06:39:28;;;;;;;50.70;33.50;;;;;;;;;;6286575;22;20092;-82
2022/03/18 06:41:54;;;;;;;54.85;35.47;;;;;;;;;;6286383;22;19999;-82
2022/03/18 06:44:20;;;;;;;55.10;34.25;;;;;;;;;;6315849;22;20026;-81
2022/03/18 06:46:46;;;;;;;53.97;35.45;;;;;;;;;;6287698;22;20060;-82
2022/03/18 06:49:13;;;;;;;55.22;36.15;;;;;;;;;;6287488;22;20007;-82
2022/03/18 06:51:39;;;;;;;52.33;35.15;;;;;;;;;;6313838;22;20435;-82
2022/03/18 06:54:06;;;;;;;58.20;36.33;;;;;;;;;;6287025;22;20057;-81
2022/03/18 06:56:32;;;;;;;56.13;37.53;;;;;;;;;;6314551;22;20008;-82
2022/03/18 06:58:59;;;;;;;57.08;36.90;;;;;;;;;;6287171;22;19999;-82
2022/03/18 07:01:25;;;;;;;58.53;37.15;;;;;;;;;;6286214;22;20330;-81
2022/03/18 07:03:51;;;;;;;56.83;34.72;;;;;;;;;;6314500;22;19999;-82
2022/03/18 07:06:17;;;;;;;55.83;35.80;;;;;;;;;;6286532;22;19999;-81
2022/03/18 07:08:43;;;;;;;61.25;37.35;;;;;;;;;;6314410;22;19999;-82
2022/03/18 07:11:13;;;;;;;61.20;38.13;;;;;;;;;;6287479;22;20003;-81
2022/03/18 07:13:39;;;;;;;64.05;38.65;;;;;;;;;;6288018;22;20086;-82
2022/03/18 07:18:53;;;;;;;62.45;36.22;;;;;;;;;;6315948;22;20397;-82
2022/03/18 07:21:19;;;;;;;62.15;37.13;;;;;;;;;;6287013;22;20003;-82
2022/03/18 07:23:45;;;;;;;58.25;37.42;;;;;;;;;;6286952;22;20004;-82
2022/03/18 07:26:11;;;;;;;57.80;38.83;;;;;;;;;;6314522;22;20000;-82
2022/03/18 07:28:37;;;;;;;59.92;37.17;;;;;;;;;;6314451;22;20003;-82
2022/03/18 07:31:03;;;;;;;52.92;34.33;;;;;;;;;;6287336;22;20100;-82
2022/03/18 07:33:29;;;;;;;55.40;35.75;;;;;;;;;;6314312;22;20299;-82
2022/03/18 07:35:56;;;;;;;58.40;37.05;;;;;;;;;;6287396;22;20012;-82
2022/03/18 07:38:23;;;;;;;55.38;36.10;;;;;;;;;;6287038;22;20003;-82
2022/03/18 07:40:49;;;;;;;52.10;36.70;;;;;;;;;;6287683;22;20458;-81
2022/03/18 07:43:15;;;;;;;57.47;36.33;;;;;;;;;;6315605;22;20449;-81
2022/03/18 07:45:41;;;;;;;57.03;36.60;;;;;;;;;;6315924;22;20003;-82
2022/03/18 07:48:08;;;;;;;56.75;36.13;;;;;;;;;;6316413;22;20006;-81
2022/03/18 07:50:36;;;;;;;55.97;36.65;;;;;;;;;;6288380;22;20014;-81
2022/03/18 07:53:03;;;;;;;57.72;37.47;;;;;;;;;;6315757;22;20026;-82
2022/03/18 07:55:30;;;;;;;58.78;36.60;;;;;;;;;;6315671;22;20057;-81
2022/03/18 07:57:57;;;;;;;55.15;35.53;;;;;;;;;;6314760;22;20007;-81
2022/03/18 08:00:23;;;;;;;56.83;35.33;;;;;;;;;;6289010;22;20004;-82
2022/03/18 08:02:50;;;;;;;54.58;34.78;;;;;;;;;;6288665;22;20003;-82
2022/03/18 08:05:16;;;;;;;50.78;33.60;;;;;;;;;;6289018;22;20031;-83
2022/03/18 08:07:44;;;;;;;53.22;36.80;;;;;;;;;;6289374;22;20011;-83
2022/03/18 08:10:10;;;;;;;53.03;35.78;;;;;;;;;;6289216;22;20026;-82
2022/03/18 08:15:40;;;;;;;52.53;34.22;;;;;;;;;;6317524;22;20059;-81
2022/03/18 08:18:09;;;;;;;48.65;33.38;;;;;;;;;;6288988;22;20027;-83
2022/03/18 08:20:40;;;;;;;49.75;33.20;;;;;;;;;;6289516;22;20025;-81
2022/03/18 08:23:06;;;;;;;53.97;35.13;;;;;;;;;;6288829;22;20065;-82
2022/03/18 08:25:32;;;;;;;54.65;35.75;;;;;;;;;;6288065;22;20026;-82
2022/03/18 08:27:58;;;;;;;50.95;34.50;;;;;;;;;;6287096;22;20010;-82
2022/03/18 08:30:24;;;;;;;50.70;32.83;;;;;;;;;;6315219;22;19999;-81
2022/03/18 08:32:50;;;;;;;47.00;32.65;;;;;;;;;;6314725;22;20058;-82
2022/03/18 08:35:16;;;;;;;50.63;34.53;;;;;;;;;;6314835;22;20035;-82
2022/03/18 08:37:58;;;;;;;50.47;33.53;;;;;;;;;;6315007;22;20061;-82
2022/03/18 08:40:27;;;;;;;50.30;33.30;;;;;;;;;;6286089;22;20004;-82
2022/03/18 08:42:57;;;;;;;51.00;33.10;;;;;;;;;;6315033;22;20046;-82
2022/03/18 08:45:23;;;;;;;50.67;33.15;;;;;;;;;;6313906;22;20000;-83
2022/03/18 08:47:49;;;;;;;51.17;31.80;;;;;;;;;;6316654;22;19999;-82
2022/03/18 08:50:16;;;;;;;47.40;32.83;;;;;;;;;;6321427;22;20003;-83
2022/03/18 08:52:42;;;;;;;50.55;33.47;;;;;;;;;;6316108;22;20030;-82
2022/03/18 08:55:09;;;;;;;45.55;32.33;;;;;;;;;;6289174;22;20349;-83
2022/03/18 08:57:37;;;;;;;48.28;32.55;;;;;;;;;;6289568;22;20011;-83
2022/03/18 09:00:07;;;;;;;49.30;33.03;;;;;;;;;;6316622;22;19995;-80
2022/03/18 09:02:33;;;;;;;45.70;31.83;;;;;;;;;;6315791;22;19999;-82
2022/03/18 09:04:59;;;;;;;49.08;32.95;;;;;;;;;;6316214;22;20011;-83
2022/03/18 09:10:29;;;;;;;47.33;33.30;;;;;;;;;;6316659;22;20377;-83
2022/03/18 09:12:58;;;;;;;48.38;34.13;;;;;;;;;;6317486;22;20049;-82
2022/03/18 09:18:28;;;;;;;53.55;35.50;;;;;;;;;;6315090;22;20024;-83
2022/03/18 09:20:54;;;;;;;47.15;33.95;;;;;;;;;;6288835;22;20025;-83
2022/03/18 09:23:20;;;;;;;46.80;33.72;;;;;;;;;;6318097;22;20426;-83
2022/03/18 09:25:46;;;;;;;49.00;31.77;;;;;;;;;;6290591;22;20038;-83
2022/03/18 09:28:12;;;;;;;46.03;30.45;;;;;;;;;;6313611;22;20015;-83
2022/03/18 09:30:39;;;;;;;41.22;29.35;;;;;;;;;;6287833;22;20390;-82
2022/03/18 09:33:05;;;;;;;49.47;32.40;;;;;;;;;;6285784;22;20315;-82
2022/03/18 09:35:31;;;;;;;48.97;31.88;;;;;;;;;;6315199;22;20011;-82
2022/03/18 09:37:57;;;;;;;44.22;30.75;;;;;;;;;;6314314;22;20002;-82
2022/03/18 09:43:26;;;;;;;;;;;;;;;;;;6316567;22;20006;-82
2022/03/18 09:45:53;;;;;;;47.95;30.10;;;;;;;;;;6316401;22;19899;-83
2022/03/18 09:48:19;;;;;;;46.90;30.90;;;;;;;;;;6315537;22;20072;-83
2022/03/18 09:50:45;;;;;;;46.65;31.30;;;;;;;;;;6287159;22;20003;-82
2022/03/18 09:53:11;;;;;;;46.92;31.45;;;;;;;;;;6314038;22;19999;-82
2022/03/18 09:55:40;;;;;;;46.28;32.85;;;;;;;;;;6315501;22;20010;-83
2022/03/18 09:58:07;;;;;;;44.72;32.05;;;;;;;;;;6289489;22;20404;-83
2022/03/18 10:00:33;;;;;;;45.95;31.40;;;;;;;;;;6314873;22;20045;-83
2022/03/18 10:03:12;;;;;;;46.10;32.08;;;;;;;;;;6315635;22;19995;-83
2022/03/18 10:05:59;;;;;;;45.13;28.77;;;;;;;;;;6289631;22;20045;-83
2022/03/18 10:08:25;;;;;;;43.97;30.30;;;;;;;;;;6316248;22;19999;-84
2022/03/18 10:10:51;;;;;;;47.33;29.63;;;;;;;;;;6287402;22;20015;-82
2022/03/18 10:13:18;;;;;;;41.25;28.95;;;;;;;;;;6288481;22;20054;-82
2022/03/18 10:15:45;;;;;;;41.13;29.98;;;;;;;;;;6290225;22;20003;-82
2022/03/18 10:18:12;;;;;;;40.65;29.38;;;;;;;;;;6316573;22;20003;-82
2022/03/18 10:20:39;;;;;;;37.90;27.23;;;;;;;;;;6314794;22;20044;-82
2022/03/18 10:23:18;;;;;;;39.90;27.60;;;;;;;;;;6290564;22;20006;-82
2022/03/18 10:25:50;;;;;;;39.47;27.50;;;;;;;;;;6317436;22;20113;-83
2022/03/18 10:28:36;;;;;;;40.63;26.83;;;;;;;;;;6319392;22;20081;-82
2022/03/18 10:31:10;;;;;;;39.13;26.80;;;;;;;;;;6316492;22;20025;-82
2022/03/18 10:37:07;;;;;;;39.35;28.02;;;;;;;;;;6316865;22;20051;-82
2022/03/18 10:39:34;;;;;;;39.00;26.92;;;;;;;;;;6315964;22;20568;-82
2022/03/18 10:42:01;;;;;;;41.05;27.65;;;;;;;;;;6291036;22;20465;-83
2022/03/18 10:44:31;;;;;;;40.08;27.60;;;;;;;;;;6319480;22;20011;-83
2022/03/18 10:46:57;;;;;;;40.95;26.17;;;;;;;;;;6288686;22;20007;-83
2022/03/18 10:49:24;;;;;;;41.92;28.15;;;;;;;;;;6289786;22;20015;-82
2022/03/18 10:51:50;;;;;;;40.42;27.58;;;;;;;;;;6289388;22;20003;-81
2022/03/18 10:54:24;;;;;;;35.80;25.20;;;;;;;;;;6286602;22;20414;-83
2022/03/18 10:56:57;;;;;;;33.67;24.67;;;;;;;;;;6317606;22;20360;-83
2022/03/18 10:59:24;;;;;;;34.97;25.10;;;;;;;;;;6317557;22;19999;-82
2022/03/18 11:01:51;;;;;;;35.45;25.88;;;;;;;;;;6293242;22;19999;-83
2022/03/18 11:04:20;;;;;;;34.08;25.25;;;;;;;;;;6292225;22;20031;-84
2022/03/18 11:07:29;;;;;;;36.33;26.38;;;;;;;;;;6288640;22;20003;-83
2022/03/18 11:11:06;;;;;;;36.50;26.65;;;;;;;;;;6315375;22;20052;-83
2022/03/18 11:12:22;;;;;;;37.45;25.65;;;;;;;;;;6319629;22;20451;-82
2022/03/18 11:14:53;;;;;;;33.90;25.02;;;;;;;;;;6321173;22;19999;-82
2022/03/18 11:17:20;;;;;;;35.55;25.33;;;;;;;;;;6320957;22;20083;-83
2022/03/18 11:19:46;;;;;;;36.05;24.77;;;;;;;;;;6291535;22;19995;-82
2022/03/18 11:22:13;;;;;;;34.15;23.60;;;;;;;;;;6294087;22;20003;-83
2022/03/18 11:24:40;;;;;;;29.17;20.85;;;;;;;;;;6320090;22;20066;-83
2022/03/18 11:27:06;;;;;;;28.50;21.13;;;;;;;;;;6289442;22;20026;-83
2022/03/18 11:29:34;;;;;;;27.08;19.85;;;;;;;;;;6315009;22;19999;-82
2022/03/18 11:32:12;;;;;;;30.13;23.00;;;;;;;;;;6291505;22;20348;-83
2022/03/18 11:34:50;;;;;;;30.08;22.75;;;;;;;;;;6316511;22;20427;-82
2022/03/18 11:37:17;;;;;;;30.15;21.15;;;;;;;;;;6321871;22;20021;-81
2022/03/18 11:39:43;;;;;;;31.15;22.05;;;;;;;;;;6289852;22;20439;-82
2022/03/18 11:42:09;;;;;;;29.70;23.27;;;;;;;;;;6316830;22;19995;-81
2022/03/18 11:44:43;;;;;;;28.98;21.55;;;;;;;;;;6315948;22;20007;-82
2022/03/18 11:47:29;;;;;;;31.02;20.73;;;;;;;;;;6316399;22;19995;-81
2022/03/18 11:49:56;;;;;;;29.23;20.67;;;;;;;;;;6291714;22;20007;-82
2022/03/18 11:52:22;;;;;;;24.02;18.80;;;;;;;;;;6317869;22;20005;-82
2022/03/18 11:54:52;;;;;;;25.40;19.67;;;;;;;;;;6318314;22;19995;-82
2022/03/18 11:57:32;;;;;;;28.92;21.38;;;;;;;;;;6288480;22;20011;-82
2022/03/18 12:00:00;;;;;;;29.02;21.55;;;;;;;;;;6320075;22;19995;-82
2022/03/18 12:02:33;;;;;;;26.80;20.35;;;;;;;;;;6318359;22;19999;-82
2022/03/18 12:04:59;;;;;;;29.02;19.80;;;;;;;;;;6319002;22;19999;-82
2022/03/18 12:07:27;;;;;;;28.83;21.77;;;;;;;;;;6316990;22;20079;-82
2022/03/18 12:09:58;;;;;;;32.00;22.42;;;;;;;;;;6317910;22;19995;-83
2022/03/18 12:12:25;;;;;;;26.45;20.77;;;;;;;;;;6318102;22;19999;-84
2022/03/18 12:14:56;;;;;;;28.50;20.10;;;;;;;;;;6291230;22;20006;-83
2022/03/18 12:17:23;;;;;;;28.75;22.00;;;;;;;;;;6318693;22;20455;-82
2022/03/18 12:19:53;;;;;;;29.33;22.23;;;;;;;;;;6288000;22;19999;-82
2022/03/18 12:22:20;;;;;;;30.17;22.40;;;;;;;;;;6314712;22;19996;-83
2022/03/18 12:24:51;;;;;;;29.15;22.00;;;;;;;;;;6316617;22;19995;-83
2022/03/18 12:27:21;;;;;;;27.77;21.45;;;;;;;;;;6319168;22;19999;-83
2022/03/18 12:29:48;;;;;;;28.52;20.38;;;;;;;;;;6316115;22;20335;-82
2022/03/18 12:32:15;;;;;;;26.33;20.38;;;;;;;;;;6292001;22;20003;-82
2022/03/18 12:34:48;;;;;;;25.75;19.70;;;;;;;;;;6318742;22;19995;-82
2022/03/18 12:37:22;;;;;;;28.13;20.67;;;;;;;;;;6320404;22;19999;-81
2022/03/18 12:40:07;;;;;;;27.67;20.90;;;;;;;;;;6321324;22;19999;-82
2022/03/18 12:42:45;;;;;;;27.92;22.30;;;;;;;;;;6320585;22;20007;-81
2022/03/18 12:45:11;;;;;;;27.15;20.80;;;;;;;;;;6318979;22;20007;-82
2022/03/18 12:47:38;;;;;;;28.52;22.35;;;;;;;;;;6318369;22;20010;-81
2022/03/18 12:50:04;;;;;;;30.30;22.90;;;;;;;;;;6317571;22;20366;-82
2022/03/18 12:52:30;;;;;;;31.27;22.90;;;;;;;;;;6292848;22;19995;-82
2022/03/18 12:55:23;;;;;;;33.30;22.98;;;;;;;;;;6323230;22;19999;-82
2022/03/18 12:57:50;;;;;;;40.92;25.40;;;;;;;;;;6291075;22;20015;-82
2022/03/18 13:00:17;;;;;;;31.02;24.30;;;;;;;;;;6323214;22;20078;-82
2022/03/18 13:02:44;;;;;;;30.98;22.02;;;;;;;;;;6323494;22;19995;-82
2022/03/18 13:05:13;;;;;;;31.48;22.88;;;;;;;;;;6320095;22;20006;-82
2022/03/18 13:07:40;;;;;;;30.20;21.33;;;;;;;;;;6318672;22;20025;-82
2022/03/18 13:10:06;;;;;;;32.33;21.90;;;;;;;;;;6314580;22;20000;-81
2022/03/18 13:12:35;;;;;;;28.80;21.83;;;;;;;;;;6317064;22;20411;-80
2022/03/18 13:15:12;;;;;;;32.85;22.85;;;;;;;;;;6314835;22;20010;-82
2022/03/18 13:17:38;;;;;;;30.50;21.38;;;;;;;;;;6289662;22;19999;-82
2022/03/18 13:20:05;;;;;;;28.42;21.98;;;;;;;;;;6320245;22;19999;-82
2022/03/18 13:22:31;;;;;;;28.20;22.10;;;;;;;;;;6292195;22;20007;-83
2022/03/18 13:25:00;;;;;;;30.27;22.95;;;;;;;;;;6318761;22;20005;-81
2022/03/18 13:27:26;;;;;;;31.90;22.33;;;;;;;;;;6286049;22;20377;-82
2022/03/18 13:32:50;;;;;;;28.25;21.80;;;;;;;;;;6317881;22;20040;-82
2022/03/18 13:35:17;;;;;;;29.83;22.15;;;;;;;;;;6318688;22;20343;-82
2022/03/18 13:37:43;;;;;;;28.95;21.48;;;;;;;;;;6316307;22;20062;-82
2022/03/18 13:40:10;;;;;;;29.42;22.00;;;;;;;;;;6288325;22;20006;-82
2022/03/18 13:42:36;;;;;;;28.00;20.83;;;;;;;;;;6316557;22;19999;-81
2022/03/18 13:45:03;;;;;;;29.23;20.67;;;;;;;;;;6289305;22;20013;-82
2022/03/18 13:47:29;;;;;;;30.30;22.77;;;;;;;;;;6319067;22;20013;-82
2022/03/18 13:49:59;;;;;;;30.38;23.23;;;;;;;;;;6316199;22;19999;-82
2022/03/18 13:52:36;;;;;;;30.20;22.95;;;;;;;;;;6287819;22;20003;-81
2022/03/18 13:55:03;;;;;;;30.02;21.90;;;;;;;;;;6319121;22;19999;-81
2022/03/18 13:57:43;;;;;;;32.05;25.67;;;;;;;;;;6317545;22;20007;-82
2022/03/18 14:00:10;;;;;;;31.75;23.27;;;;;;;;;;6318140;22;19995;-82
2022/03/18 14:02:36;;;;;;;34.40;24.70;;;;;;;;;;6315845;22;20000;-83
2022/03/18 14:05:02;;;;;;;30.23;22.10;;;;;;;;;;6287355;22;19999;-82
2022/03/18 14:07:44;;;;;;;30.52;22.92;;;;;;;;;;6289910;22;20059;-82
2022/03/18 14:10:10;;;;;;;35.22;24.88;;;;;;;;;;6317672;22;20025;-82
2022/03/18 14:12:36;;;;;;;30.45;23.08;;;;;;;;;;6290827;22;19999;-83
2022/03/18 14:15:14;;;;;;;32.78;23.70;;;;;;;;;;6317890;22;20021;-83
2022/03/18 14:17:59;;;;;;;29.48;21.60;;;;;;;;;;6318540;22;20471;-81
2022/03/18 14:20:28;;;;;;;32.00;22.85;;;;;;;;;;6317278;22;19999;-82
2022/03/18 14:22:57;;;;;;;29.30;21.27;;;;;;;;;;6291249;22;20037;-82
2022/03/18 14:25:23;;;;;;;30.40;22.05;;;;;;;;;;6317008;22;20004;-82
2022/03/18 14:27:51;;;;;;;30.70;22.80;;;;;;;;;;6317040;22;20003;-82
2022/03/18 14:30:24;;;;;;;32.20;23.25;;;;;;;;;;6317436;22;20013;-82
2022/03/18 14:32:51;;;;;;;31.30;22.73;;;;;;;;;;6316411;22;20455;-81
2022/03/18 14:35:18;;;;;;;29.52;22.75;;;;;;;;;;6289828;22;20006;-82
2022/03/18 14:37:44;;;;;;;31.08;23.35;;;;;;;;;;6291878;22;20000;-82
2022/03/18 14:40:12;;;;;;;29.95;22.80;;;;;;;;;;6291615;22;20027;-82
2022/03/18 14:42:39;;;;;;;30.73;23.13;;;;;;;;;;6293276;22;19999;-82
2022/03/18 14:45:06;;;;;;;30.10;23.13;;;;;;;;;;6319528;22;20049;-82
2022/03/18 14:47:32;;;;;;;30.92;22.63;;;;;;;;;;6319367;22;20019;-81
2022/03/18 14:49:58;;;;;;;30.45;22.17;;;;;;;;;;6292738;22;20000;-82
2022/03/18 14:52:24;;;;;;;28.40;21.60;;;;;;;;;;6319833;22;20022;-82
2022/03/18 14:57:34;;;;;;;27.65;21.38;;;;;;;;;;6321421;22;20065;-81